Time;durP1;ratioP1;P1;durP2;ratioP2;P2;SDS_P1;SDS_P2;PMS_P1;PMS_P2;Temp;Humidity;BMP_temperature;BMP_pressure;BME280_temperature;BME280_humidity;BME280_pressure;Samples;Min_cycle;Max_cycle;Signal;HPM_P1;HPM_P2
2021/09/05 00:01:39;;;;;;;13.07;7.25;;;;;;;21.04;63.25;100026.25;5040603;28;20041;-62
2021/09/05 00:04:07;;;;;;;13.25;7.32;;;;;;;21.02;63.80;100042.78;5047445;28;20099;-60
2021/09/05 00:06:33;;;;;;;15.23;7.05;;;;;;;20.91;63.96;100029.50;5035071;28;20083;-61
2021/09/05 00:09:00;;;;;;;12.40;7.25;;;;;;;20.92;63.74;100029.16;5036224;28;20045;-61
2021/09/05 00:11:27;;;;;;;11.30;6.28;;;;;;;20.90;63.89;100030.72;5035193;28;20072;-59
2021/09/05 00:13:54;;;;;;;10.07;7.13;;;;;;;20.96;63.61;100040.63;5040832;28;20804;-59
2021/09/05 00:16:23;;;;;;;11.60;7.35;;;;;;;20.87;64.15;100037.94;5039822;28;20087;-59
2021/09/05 00:18:50;;;;;;;9.97;6.67;;;;;;;20.84;63.91;100041.50;5046188;28;20068;-60
2021/09/05 00:21:17;;;;;;;12.13;6.45;;;;;;;20.90;64.17;100037.19;5037090;28;20076;-59
2021/09/05 00:23:45;;;;;;;12.45;6.38;;;;;;;20.76;63.74;100014.09;5038889;28;20128;-59
2021/09/05 00:26:11;;;;;;;15.27;7.68;;;;;;;20.89;63.51;100040.38;5036192;28;20120;-60
2021/09/05 00:28:38;;;;;;;15.48;6.88;;;;;;;20.94;63.50;100049.47;5043787;28;20108;-59
2021/09/05 00:31:05;;;;;;;16.50;7.38;;;;;;;20.99;63.25;100046.38;5044295;28;20076;-60
2021/09/05 00:33:32;;;;;;;11.13;6.82;;;;;;;21.04;62.90;100048.94;5060509;28;20087;-59
2021/09/05 00:35:58;;;;;;;16.10;6.95;;;;;;;21.05;62.78;100059.09;5056639;28;20064;-61
2021/09/05 00:38:25;;;;;;;13.55;7.57;;;;;;;21.05;62.98;100053.44;5038197;28;20473;-61
2021/09/05 00:40:52;;;;;;;11.05;6.93;;;;;;;21.01;62.85;100043.16;5044643;28;20141;-61
2021/09/05 00:43:19;;;;;;;10.82;6.43;;;;;;;20.94;62.98;100038.13;5040640;28;20077;-61
2021/09/05 00:45:46;;;;;;;14.43;9.25;;;;;;;20.91;63.45;100041.69;5036345;28;20120;-61
2021/09/05 00:48:13;;;;;;;14.75;6.78;;;;;;;20.90;63.38;100034.38;5040791;28;20052;-61
2021/09/05 00:50:42;;;;;;;13.90;7.65;;;;;;;20.81;63.18;100016.66;5029725;28;20076;-62
2021/09/05 00:53:10;;;;;;;14.02;6.70;;;;;;;20.85;63.27;100023.25;5039682;28;20128;-62
2021/09/05 00:55:38;;;;;;;12.30;7.45;;;;;;;20.88;63.02;100021.72;5052224;28;20096;-62
2021/09/05 00:58:08;;;;;;;10.18;6.00;;;;;;;20.86;62.59;100022.09;5035867;28;20478;-62
2021/09/05 01:00:35;;;;;;;10.77;6.53;;;;;;;21.02;62.74;100039.13;5035386;28;20076;-62
2021/09/05 01:03:04;;;;;;;9.55;5.93;;;;;;;20.91;62.42;100021.00;5038548;28;20053;-62
2021/09/05 01:05:31;;;;;;;13.00;6.45;;;;;;;20.99;62.75;100039.84;5035429;28;20038;-62
2021/09/05 01:07:58;;;;;;;12.63;6.13;;;;;;;20.84;62.68;100015.94;5038616;28;20053;-61
2021/09/05 01:10:26;;;;;;;14.85;5.55;;;;;;;20.86;63.07;100029.78;5045642;28;20524;-61
2021/09/05 01:12:53;;;;;;;10.57;6.05;;;;;;;20.85;62.80;100028.94;5033801;28;20077;-61
2021/09/05 01:15:20;;;;;;;10.82;5.30;;;;;;;20.85;62.85;100031.78;5045246;28;20045;-62
2021/09/05 01:17:47;;;;;;;10.88;6.55;;;;;;;20.90;62.67;100031.53;5040208;28;20440;-62
2021/09/05 01:20:14;;;;;;;11.35;6.38;;;;;;;20.83;62.92;100025.66;5034063;28;20136;-62
2021/09/05 01:22:45;;;;;;;14.50;6.45;;;;;;;20.80;62.99;100029.22;5036081;28;20080;-63
2021/09/05 01:25:12;;;;;;;13.68;6.55;;;;;;;20.77;62.87;100024.25;5032596;28;20073;-64
2021/09/05 01:27:39;;;;;;;12.02;6.22;;;;;;;20.76;62.94;100033.97;5033259;28;20128;-66
2021/09/05 01:30:07;;;;;;;12.50;6.70;;;;;;;20.75;63.25;100026.63;5036220;28;20038;-66
2021/09/05 01:32:34;;;;;;;12.57;6.22;;;;;;;20.73;63.05;100020.50;5040842;28;20085;-68
2021/09/05 01:35:02;;;;;;;17.50;6.13;;;;;;;20.63;62.92;100009.69;5038886;28;20463;-66
2021/09/05 01:37:30;;;;;;;11.82;6.22;;;;;;;20.64;62.96;100008.47;5041715;28;20041;-67
2021/09/05 01:39:57;;;;;;;11.80;6.03;;;;;;;20.68;63.10;100017.91;5044578;28;20131;-66
2021/09/05 01:42:24;;;;;;;10.18;6.18;;;;;;;20.58;62.78;100016.41;5032727;28;20049;-67
2021/09/05 01:44:51;;;;;;;12.85;6.63;;;;;;;20.69;62.73;100019.59;5041987;28;20144;-61
2021/09/05 01:47:18;;;;;;;7.85;5.90;;;;;;;20.70;62.42;100015.56;5036860;28;20042;-63
2021/09/05 01:49:45;;;;;;;12.32;6.25;;;;;;;20.73;62.46;100012.00;5049090;28;20565;-62
2021/09/05 01:52:12;;;;;;;10.40;6.03;;;;;;;20.75;62.25;100015.28;5040245;28;20041;-62
2021/09/05 01:54:38;;;;;;;9.55;6.07;;;;;;;20.74;62.25;100016.47;5033634;28;20124;-63
2021/09/05 01:57:05;;;;;;;10.43;6.45;;;;;;;20.67;62.44;100013.44;5046457;28;20321;-63
2021/09/05 01:59:32;;;;;;;10.30;5.55;;;;;;;20.60;62.68;100011.22;5038199;28;20084;-63
2021/09/05 02:01:59;;;;;;;10.95;6.10;;;;;;;20.65;62.13;100021.47;5044064;28;20132;-62
2021/09/05 02:04:26;;;;;;;14.63;7.15;;;;;;;20.67;61.88;100016.28;5044654;28;20128;-62
2021/09/05 02:06:53;;;;;;;11.88;6.43;;;;;;;20.42;62.17;99975.81;5044180;28;20077;-62
2021/09/05 02:09:21;;;;;;;11.63;6.35;;;;;;;20.68;62.04;100015.91;5039773;28;20045;-62
2021/09/05 02:11:48;;;;;;;12.55;6.38;;;;;;;20.69;62.01;100019.59;5035866;28;20125;-62
2021/09/05 02:14:14;;;;;;;11.68;5.97;;;;;;;20.66;61.84;100017.47;5046007;28;20045;-62
2021/09/05 02:16:41;;;;;;;9.90;5.35;;;;;;;20.55;61.95;100009.47;5039794;28;20045;-61
2021/09/05 02:19:08;;;;;;;13.38;6.50;;;;;;;20.61;62.06;100027.03;5040584;28;20080;-62
2021/09/05 02:21:35;;;;;;;12.43;6.35;;;;;;;20.62;61.87;100033.56;5034860;28;20048;-62
2021/09/05 02:24:02;;;;;;;15.07;6.80;;;;;;;20.54;61.97;100013.47;5036349;28;20069;-61
2021/09/05 02:26:29;;;;;;;14.27;6.18;;;;;;;20.55;61.98;100034.19;5044494;28;20102;-61
2021/09/05 02:28:56;;;;;;;16.80;6.88;;;;;;;20.55;61.99;100031.34;5043877;28;20548;-61
2021/09/05 02:31:23;;;;;;;12.85;6.57;;;;;;;20.53;62.17;100034.53;5034797;28;20056;-61
2021/09/05 02:33:49;;;;;;;12.07;6.13;;;;;;;20.50;62.19;100031.56;5036191;28;20041;-60
2021/09/05 02:36:16;;;;;;;9.55;6.03;;;;;;;20.46;62.28;100028.63;5038636;28;20073;-59
2021/09/05 02:38:43;;;;;;;12.20;6.68;;;;;;;20.44;62.24;100036.66;5041476;28;20132;-59
2021/09/05 02:41:10;;;;;;;10.52;6.28;;;;;;;20.26;62.10;100027.63;5048435;28;20129;-61
2021/09/05 02:43:37;;;;;;;12.20;7.05;;;;;;;20.45;62.06;100048.84;5037349;28;20075;-62
2021/09/05 02:46:03;;;;;;;11.80;5.97;;;;;;;20.42;62.09;100061.72;5042407;28;20072;-61
2021/09/05 02:48:30;;;;;;;11.88;7.20;;;;;;;20.33;62.20;100052.53;5037115;28;20124;-61
2021/09/05 02:50:57;;;;;;;11.38;7.07;;;;;;;20.06;62.19;100014.44;5042575;28;20128;-61
2021/09/05 02:53:24;;;;;;;14.02;7.65;;;;;;;20.34;62.28;100060.69;5040063;28;20551;-61
2021/09/05 02:55:51;;;;;;;14.73;6.88;;;;;;;20.21;62.16;100050.56;5048777;28;20068;-61
2021/09/05 02:58:18;;;;;;;12.70;6.95;;;;;;;20.10;62.47;100024.72;5045902;28;20552;-61
2021/09/05 03:00:44;;;;;;;14.88;6.75;;;;;;;20.26;62.25;100060.81;5042424;28;20136;-61
2021/09/05 03:03:11;;;;;;;14.43;7.55;;;;;;;20.03;62.52;100020.81;5038973;28;20080;-61
2021/09/05 03:05:38;;;;;;;12.32;6.93;;;;;;;20.22;62.45;100051.38;5046687;28;20051;-61
2021/09/05 03:08:05;;;;;;;12.55;6.47;;;;;;;20.21;62.76;100049.75;5039814;28;20516;-61
2021/09/05 03:10:33;;;;;;;13.27;7.05;;;;;;;20.16;62.72;100044.28;5040165;28;20043;-61
2021/09/05 03:13:00;;;;;;;15.27;8.05;;;;;;;19.99;62.69;100026.38;5037882;28;20076;-61
2021/09/05 03:15:27;;;;;;;15.30;7.35;;;;;;;20.15;62.82;100051.16;5035968;28;22591;-61
2021/09/05 03:17:54;;;;;;;12.95;7.13;;;;;;;20.11;63.24;100046.19;5049266;28;20057;-60
2021/09/05 03:20:21;;;;;;;18.60;7.65;;;;;;;20.11;62.92;100048.22;5048921;28;20071;-66
2021/09/05 03:22:48;;;;;;;12.07;6.60;;;;;;;20.09;62.92;100042.06;5038320;28;20141;-61
2021/09/05 03:25:15;;;;;;;11.48;7.15;;;;;;;20.04;63.07;100039.50;5034569;28;20474;-60
2021/09/05 03:27:41;;;;;;;15.23;7.53;;;;;;;20.04;62.88;100037.47;5041783;28;20068;-62
2021/09/05 03:30:09;;;;;;;12.55;7.88;;;;;;;19.95;62.94;100018.94;5036394;28;20088;-61
2021/09/05 03:32:35;;;;;;;13.82;7.28;;;;;;;20.03;63.21;100033.00;5035262;28;21078;-60
2021/09/05 03:35:03;;;;;;;12.45;7.93;;;;;;;19.85;62.90;100004.06;5033147;28;20128;-60
2021/09/05 03:37:30;;;;;;;11.05;6.28;;;;;;;19.95;63.30;100024.63;5035853;28;20042;-59
2021/09/05 03:39:56;;;;;;;12.73;7.57;;;;;;;20.04;63.45;100048.00;5031833;28;20132;-59
2021/09/05 03:42:23;;;;;;;14.82;7.10;;;;;;;19.91;63.05;100024.50;5052205;28;20463;-59
2021/09/05 03:44:50;;;;;;;14.05;7.13;;;;;;;19.86;63.38;100017.09;5049415;28;20136;-59
2021/09/05 03:47:17;;;;;;;10.80;6.57;;;;;;;20.00;62.95;100030.88;5038878;28;20125;-59
2021/09/05 03:49:44;;;;;;;13.50;7.32;;;;;;;19.99;63.24;100034.88;5034175;28;20096;-59
2021/09/05 03:52:11;;;;;;;12.98;6.90;;;;;;;20.00;63.34;100022.38;5036847;28;20068;-58
2021/09/05 03:54:38;;;;;;;11.20;6.85;;;;;;;20.00;63.15;100022.38;5051938;28;20607;-58
2021/09/05 03:57:04;;;;;;;10.48;6.63;;;;;;;19.98;63.28;100027.56;5038171;28;20706;-58
2021/09/05 03:59:31;;;;;;;11.48;7.25;;;;;;;20.00;63.44;100030.88;5045636;28;20089;-58
2021/09/05 04:01:58;;;;;;;12.20;6.53;;;;;;;19.99;63.56;100032.03;5041185;28;20136;-57
2021/09/05 04:04:26;;;;;;;15.10;7.57;;;;;;;20.00;63.47;100028.03;5034385;28;20049;-59
2021/09/05 04:07:00;;;;;;;15.00;7.28;;;;;;;19.86;63.57;100002.91;5036876;28;20208;-59
2021/09/05 04:12:15;;;;;;;15.55;8.25;;;;;;;19.97;63.39;100017.41;5040922;28;20145;-63
2021/09/05 04:14:42;;;;;;;12.50;7.20;;;;;;;19.95;63.44;100022.59;5035411;28;20103;-60
2021/09/05 04:17:09;;;;;;;14.95;7.40;;;;;;;19.77;63.75;100001.41;5033577;28;20045;-61
2021/09/05 04:19:36;;;;;;;12.77;7.10;;;;;;;19.84;64.33;100019.44;5036413;28;20054;-63
2021/09/05 04:22:03;;;;;;;11.48;6.55;;;;;;;19.83;64.32;100026.28;5033602;28;20103;-63
2021/09/05 04:24:30;;;;;;;15.32;7.22;;;;;;;19.71;64.63;100002.81;5040360;28;20140;-63
2021/09/05 04:26:57;;;;;;;12.32;6.93;;;;;;;19.74;65.12;100007.78;5041240;28;20143;-63
2021/09/05 04:29:24;;;;;;;12.05;7.30;;;;;;;19.72;65.20;100010.13;5032221;28;20489;-64
2021/09/05 04:31:51;;;;;;;11.57;6.18;;;;;;;19.59;65.33;99995.94;5034204;28;20048;-64
2021/09/05 04:34:18;;;;;;;13.30;6.43;;;;;;;19.53;65.97;100003.03;5039737;28;20046;-60
2021/09/05 04:36:44;;;;;;;9.82;5.57;;;;;;;19.49;66.40;99999.25;5035916;28;20106;-60
2021/09/05 04:39:11;;;;;;;16.35;7.45;;;;;;;19.35;66.58;99978.94;5038231;28;20131;-60
2021/09/05 04:41:38;;;;;;;12.27;6.07;;;;;;;19.39;66.55;99991.22;5043957;28;20076;-59
2021/09/05 04:44:05;;;;;;;11.10;5.90;;;;;;;19.39;66.40;99986.41;5045692;28;20136;-59
2021/09/05 04:46:32;;;;;;;13.43;5.70;;;;;;;19.35;66.77;99981.78;5038864;28;20037;-59
2021/09/05 04:48:59;;;;;;;10.52;5.95;;;;;;;19.45;66.56;100001.13;5045034;28;20132;-59
2021/09/05 04:51:25;;;;;;;10.98;6.28;;;;;;;19.38;66.65;100003.72;5037119;28;20128;-60
2021/09/05 04:53:52;;;;;;;14.05;7.40;;;;;;;19.09;66.74;99979.28;5045532;28;20079;-59
2021/09/05 04:56:19;;;;;;;16.70;7.30;;;;;;;19.48;66.13;100016.59;5036086;28;20124;-59
2021/09/05 04:58:46;;;;;;;16.52;7.03;;;;;;;19.47;65.95;100012.09;5034468;28;20120;-59
2021/09/05 05:01:13;;;;;;;11.90;7.15;;;;;;;19.42;65.91;100010.34;5045256;28;20124;-60
2021/09/05 05:03:40;;;;;;;11.13;6.75;;;;;;;19.31;66.19;100001.47;5037153;28;20417;-60
2021/09/05 05:06:27;;;;;;;14.13;7.30;;;;;;;19.34;66.29;99994.28;5033684;28;20044;-60
2021/09/05 05:08:54;;;;;;;10.82;6.40;;;;;;;19.36;66.47;99983.44;5045781;28;20584;-60
2021/09/05 05:11:21;;;;;;;16.58;6.97;;;;;;;19.50;65.86;100003.72;5038037;28;20132;-59
2021/09/05 05:13:49;;;;;;;14.45;6.72;;;;;;;19.58;65.74;100013.28;5034973;28;20136;-59
2021/09/05 05:16:15;;;;;;;12.18;6.68;;;;;;;19.57;66.00;100008.81;5036054;28;20049;-59
2021/09/05 05:18:42;;;;;;;14.15;7.47;;;;;;;19.54;65.29;100001.84;5040713;28;20056;-59
2021/09/05 05:21:10;;;;;;;15.43;6.95;;;;;;;19.61;65.27;99999.22;5033941;28;20092;-59
2021/09/05 05:23:37;;;;;;;14.77;6.72;;;;;;;19.63;65.29;100001.75;5032045;28;20041;-67
2021/09/05 05:26:04;;;;;;;14.75;6.82;;;;;;;19.53;65.40;99991.69;5043269;28;20131;-67
2021/09/05 05:28:31;;;;;;;12.10;6.70;;;;;;;19.61;65.19;100012.56;5046815;28;20136;-63
2021/09/05 05:30:58;;;;;;;13.77;7.28;;;;;;;19.50;65.57;100000.91;5033707;28;20136;-66
2021/09/05 05:33:25;;;;;;;12.40;6.78;;;;;;;19.45;65.67;99997.47;5039028;28;20050;-63
2021/09/05 05:35:52;;;;;;;12.18;6.93;;;;;;;19.47;65.57;100010.09;5030702;28;20120;-62
2021/09/05 05:38:19;;;;;;;13.57;7.10;;;;;;;19.41;65.58;100000.19;5037304;28;20124;-63
2021/09/05 05:40:46;;;;;;;10.30;6.90;;;;;;;19.39;65.71;99997.72;5033475;28;20073;-63
2021/09/05 05:43:13;;;;;;;12.15;7.05;;;;;;;19.50;65.57;100022.72;5034577;28;20076;-78
2021/09/05 05:45:41;;;;;;;14.60;6.75;;;;;;;19.44;65.70;100013.63;5039383;28;20060;-76
2021/09/05 05:48:08;;;;;;;12.35;6.85;;;;;;;19.35;65.66;100018.56;5041606;28;20102;-75
2021/09/05 05:50:35;;;;;;;12.48;6.93;;;;;;;19.45;66.04;100022.94;5045393;28;20118;-65
2021/09/05 05:53:02;;;;;;;14.07;6.55;;;;;;;19.22;65.87;99982.97;5052360;28;20129;-63
2021/09/05 05:55:29;;;;;;;17.90;7.82;;;;;;;19.39;65.57;100013.88;5036429;28;20132;-62
2021/09/05 05:57:55;;;;;;;11.73;7.30;;;;;;;19.30;65.92;99999.00;5036403;28;20076;-65
2021/09/05 06:00:26;;;;;;;12.07;7.18;;;;;;;19.41;65.98;100022.84;5041847;28;20137;-70
2021/09/05 06:02:54;;;;;;;13.30;6.22;;;;;;;19.44;65.79;100038.31;5038900;28;20481;-66
2021/09/05 06:05:21;;;;;;;13.25;7.55;;;;;;;19.28;65.73;100010.69;5047034;28;20119;-65
2021/09/05 06:07:48;;;;;;;10.65;6.43;;;;;;;19.12;66.00;100004.88;5033794;28;20065;-74
2021/09/05 06:10:15;;;;;;;12.38;7.68;;;;;;;19.00;66.18;100013.34;5034621;28;20084;-66
2021/09/05 06:12:42;;;;;;;15.18;7.50;;;;;;;18.98;66.20;100015.72;5035660;28;20148;-73
2021/09/05 06:15:09;;;;;;;11.95;6.90;;;;;;;19.00;66.67;100030.31;5036300;28;20129;-66
2021/09/05 06:17:36;;;;;;;11.63;6.45;;;;;;;18.96;66.70;100029.38;5041262;28;20435;-69
2021/09/05 06:20:06;;;;;;;10.88;5.03;;;;;;;18.98;66.71;100017.72;5045274;28;20040;-68
2021/09/05 06:22:33;;;;;;;12.90;6.75;;;;;;;18.92;66.72;100012.28;5034743;28;20045;-63
2021/09/05 06:25:00;;;;;;;15.85;7.80;;;;;;;19.07;66.91;100030.56;5032109;28;20547;-69
2021/09/05 06:27:28;;;;;;;10.48;6.50;;;;;;;19.15;66.88;100032.50;5039013;28;20052;-78
2021/09/05 06:29:54;;;;;;;13.25;7.63;;;;;;;19.26;66.53;100037.69;5049419;28;20080;-62
2021/09/05 06:32:21;;;;;;;11.25;6.93;;;;;;;19.31;66.11;100040.28;5070423;28;20075;-65
2021/09/05 06:34:48;;;;;;;15.70;7.18;;;;;;;19.27;66.14;100033.69;5040337;28;20084;-62
2021/09/05 06:37:15;;;;;;;11.63;6.55;;;;;;;19.25;66.12;100036.03;5040371;28;20094;-68
2021/09/05 06:39:42;;;;;;;11.40;7.43;;;;;;;19.28;65.97;100039.00;5046276;28;20079;-65
2021/09/05 06:42:10;;;;;;;12.98;7.30;;;;;;;19.22;65.95;100026.25;5030184;28;20140;-68
2021/09/05 06:44:38;;;;;;;14.23;7.15;;;;;;;19.18;66.13;100031.78;5039325;28;20046;-65
2021/09/05 06:47:05;;;;;;;13.35;7.07;;;;;;;18.96;66.44;100032.19;5040776;28;20136;-68
2021/09/05 06:49:33;;;;;;;16.70;7.32;;;;;;;18.73;66.64;100043.09;5034087;28;20067;-68
2021/09/05 06:52:00;;;;;;;13.50;6.80;;;;;;;18.60;67.35;100045.03;5044988;28;20045;-69
2021/09/05 06:54:27;;;;;;;14.18;7.53;;;;;;;18.30;67.45;100001.06;5031513;28;20128;-69
2021/09/05 06:56:55;;;;;;;13.13;6.55;;;;;;;18.60;67.55;100039.38;5028854;28;20049;-67
2021/09/05 06:59:21;;;;;;;14.30;7.65;;;;;;;18.57;67.25;100034.41;5036823;28;20148;-68
2021/09/05 07:01:48;;;;;;;14.05;6.75;;;;;;;18.62;67.70;100037.00;5037106;28;20164;-69
2021/09/05 07:04:15;;;;;;;14.27;6.38;;;;;;;18.65;67.16;100027.81;5032634;28;20041;-70
2021/09/05 07:06:45;;;;;;;12.23;7.75;;;;;;;18.79;66.89;100029.56;5032301;28;20136;-69
2021/09/05 07:09:12;;;;;;;12.77;6.50;;;;;;;18.98;66.60;100031.88;5032199;28;20092;-70
2021/09/05 07:11:39;;;;;;;13.95;7.38;;;;;;;19.06;66.30;100040.25;5028759;28;20041;-69
2021/09/05 07:14:05;;;;;;;12.13;6.47;;;;;;;18.99;65.96;100013.72;5034432;28;20517;-70
2021/09/05 07:16:32;;;;;;;11.60;5.80;;;;;;;19.30;65.58;100041.47;5036576;28;20122;-70
2021/09/05 07:18:59;;;;;;;10.63;6.57;;;;;;;19.38;65.74;100034.84;5038606;28;20049;-69
2021/09/05 07:21:26;;;;;;;14.95;6.40;;;;;;;19.39;65.13;100026.03;5036743;28;20072;-70
2021/09/05 07:23:53;;;;;;;14.88;7.47;;;;;;;19.49;64.38;99965.28;5033644;28;20069;-69
2021/09/05 07:26:20;;;;;;;13.50;7.60;;;;;;;20.55;63.53;100037.84;5032556;28;20069;-69
2021/09/05 07:28:46;;;;;;;12.40;6.88;;;;;;;20.73;62.79;100027.00;5034589;28;20073;-69
2021/09/05 07:31:13;;;;;;;12.65;7.72;;;;;;;20.87;62.62;100037.94;5034736;28;20137;-69
2021/09/05 07:33:40;;;;;;;15.20;7.18;;;;;;;20.95;62.15;100036.09;5037346;28;20053;-69
2021/09/05 07:36:07;;;;;;;14.45;6.35;;;;;;;21.14;61.24;100039.06;5035325;28;20095;-69
2021/09/05 07:38:34;;;;;;;14.50;7.70;;;;;;;21.33;60.85;100038.34;5041006;28;20227;-69
2021/09/05 07:41:01;;;;;;;11.38;7.63;;;;;;;21.76;60.64;100033.78;5046040;28;20044;-69
2021/09/05 07:43:28;;;;;;;13.93;7.03;;;;;;;21.98;59.78;100035.97;5046162;28;20049;-70
2021/09/05 07:45:55;;;;;;;12.45;6.25;;;;;;;22.35;59.11;100054.66;5049880;28;20182;-69
2021/09/05 07:48:22;;;;;;;12.50;6.65;;;;;;;22.45;58.36;100049.22;5036934;28;20049;-69
2021/09/05 07:50:48;;;;;;;10.02;5.88;;;;;;;22.81;57.89;100052.81;5035667;28;20132;-69
2021/09/05 07:53:15;;;;;;;10.63;6.55;;;;;;;23.30;57.13;100048.50;5042497;28;20080;-68
2021/09/05 07:55:42;;;;;;;10.52;6.18;;;;;;;23.71;56.28;100055.34;5042010;28;20084;-69
2021/09/05 07:58:09;;;;;;;10.20;6.00;;;;;;;23.45;54.83;100033.28;5044797;28;20048;-66
2021/09/05 08:00:35;;;;;;;10.35;5.70;;;;;;;23.55;54.67;100037.53;5036872;28;20049;-69
2021/09/05 08:03:03;;;;;;;7.47;4.95;;;;;;;23.53;53.99;100045.66;5037683;28;20099;-67
2021/09/05 08:05:30;;;;;;;8.07;3.58;;;;;;;23.30;54.20;100055.00;5044550;28;20509;-68
2021/09/05 08:07:57;;;;;;;8.10;4.32;;;;;;;23.23;54.71;100063.44;5045655;28;20084;-68
2021/09/05 08:10:23;;;;;;;3.20;2.67;;;;;;;23.07;54.17;100057.00;5035854;28;20119;-69
2021/09/05 08:12:50;;;;;;;6.25;3.85;;;;;;;22.99;54.34;100060.94;5031051;28;20073;-69
2021/09/05 08:15:17;;;;;;;3.88;2.65;;;;;;;22.93;54.26;100066.09;5038210;28;20573;-68
2021/09/05 08:17:44;;;;;;;5.47;3.88;;;;;;;22.90;53.94;100059.09;5043725;28;20136;-66
2021/09/05 08:20:12;;;;;;;7.72;5.10;;;;;;;23.12;53.96;100065.25;5034008;28;20444;-70
2021/09/05 08:22:39;;;;;;;7.72;4.10;;;;;;;23.33;53.56;100067.69;5039076;28;20084;-64
2021/09/05 08:25:06;;;;;;;8.73;5.15;;;;;;;23.41;53.04;100055.19;5045935;28;20073;-63
2021/09/05 08:27:33;;;;;;;11.52;5.65;;;;;;;23.66;52.90;100067.06;5033737;28;20509;-63
2021/09/05 08:30:00;;;;;;;12.40;5.32;;;;;;;23.85;52.27;100074.72;5033269;28;20049;-65
2021/09/05 08:32:28;;;;;;;7.38;4.10;;;;;;;24.19;51.71;100081.38;5035008;28;20408;-64
2021/09/05 08:34:55;;;;;;;12.38;4.60;;;;;;;24.16;50.96;100072.75;5041928;28;20558;-58
2021/09/05 08:37:22;;;;;;;9.48;4.68;;;;;;;24.20;51.13;100083.00;5037025;28;20524;-64
2021/09/05 08:39:50;;;;;;;12.27;5.80;;;;;;;24.34;50.79;100068.97;5080807;28;20449;-64
2021/09/05 08:42:17;;;;;;;8.90;5.30;;;;;;;24.68;50.05;100083.31;5049344;28;20046;-64
2021/09/05 08:44:45;;;;;;;10.93;5.53;;;;;;;25.32;49.61;100082.47;5037740;28;20124;-63
2021/09/05 08:47:12;;;;;;;8.43;4.63;;;;;;;25.59;48.48;100060.25;5036888;28;20471;-63
2021/09/05 08:49:42;;;;;;;5.88;2.85;;;;;;;25.49;47.90;100070.38;5045598;28;20083;-63
2021/09/05 08:52:09;;;;;;;8.77;4.88;;;;;;;25.58;48.34;100082.31;5053466;28;20081;-63
2021/09/05 08:54:36;;;;;;;5.68;4.13;;;;;;;25.71;47.80;100083.69;5044210;28;20080;-63
2021/09/05 08:57:05;;;;;;;6.20;3.78;;;;;;;25.58;47.89;100076.59;5032464;28;20053;-63
2021/09/05 08:59:32;;;;;;;8.30;4.80;;;;;;;25.67;48.01;100088.50;5032412;28;20816;-65
2021/09/05 09:02:00;;;;;;;5.70;4.45;;;;;;;25.76;47.91;100080.44;5044397;28;20051;-62
2021/09/05 09:04:41;;;;;;;9.73;5.20;;;;;;;25.67;47.46;100085.66;5026795;28;20482;-62
2021/09/05 09:07:10;;;;;;;12.80;5.85;;;;;;;26.06;47.50;100076.63;5036598;28;20662;-62
2021/09/05 09:09:42;;;;;;;7.72;4.57;;;;;;;26.34;46.73;100090.31;5040724;28;20103;-63
2021/09/05 09:12:09;;;;;;;6.88;5.03;;;;;;;26.66;46.09;100092.56;5036947;28;20553;-63
2021/09/05 09:14:42;;;;;;;7.60;4.85;;;;;;;27.08;45.75;100091.94;5032791;28;20520;-63
2021/09/05 09:17:14;;;;;;;12.15;4.80;;;;;;;26.84;45.38;100073.41;5032821;28;20569;-63
2021/09/05 09:19:46;;;;;;;8.45;5.15;;;;;;;26.80;45.28;100094.66;5050251;28;20049;-63
2021/09/05 09:22:19;;;;;;;8.20;5.57;;;;;;;27.06;45.08;100094.38;5052441;28;20087;-63
2021/09/05 09:24:46;;;;;;;9.25;4.38;;;;;;;27.35;44.38;100092.44;5037484;28;20490;-63
2021/09/05 09:27:13;;;;;;;9.00;5.00;;;;;;;27.29;44.26;100105.53;5038646;28;20128;-63
2021/09/05 09:29:40;;;;;;;8.70;3.95;;;;;;;27.57;43.85;100099.03;5052430;28;20554;-63
2021/09/05 09:32:17;;;;;;;6.97;4.43;;;;;;;27.91;43.84;100098.69;5052383;28;20132;-63
2021/09/05 09:34:47;;;;;;;6.72;4.53;;;;;;;28.23;42.88;100109.31;5051168;28;20123;-63
2021/09/05 09:37:17;;;;;;;9.73;4.72;;;;;;;28.67;42.73;100102.28;5038187;28;20102;-63
2021/09/05 09:39:49;;;;;;;10.27;5.50;;;;;;;29.29;42.40;100101.63;5052036;28;20084;-63
2021/09/05 09:42:48;;;;;;;10.57;4.80;;;;;;;29.79;41.86;100109.97;5052270;28;20460;-63
2021/09/05 09:45:17;;;;;;;11.18;4.72;;;;;;;29.93;41.24;100101.22;5020397;28;20053;-63
2021/09/05 09:47:51;;;;;;;6.32;4.82;;;;;;;30.02;40.73;100103.63;5031842;28;20450;-63
2021/09/05 09:50:21;;;;;;;5.55;4.03;;;;;;;30.13;39.95;100107.22;5032842;28;20045;-63
2021/09/05 09:52:49;;;;;;;5.35;3.95;;;;;;;29.97;39.46;100110.63;5039263;28;20133;-62
2021/09/05 09:55:15;;;;;;;5.90;3.85;;;;;;;30.12;38.94;100114.22;5035613;28;20076;-63
2021/09/05 09:57:42;;;;;;;5.88;3.95;;;;;;;30.10;38.90;100113.00;5051998;28;20453;-63
2021/09/05 10:00:10;;;;;;;7.78;4.65;;;;;;;30.36;38.02;100114.41;5049442;28;20080;-63
2021/09/05 10:02:42;;;;;;;7.05;4.07;;;;;;;30.39;37.42;100117.28;5048157;28;20059;-63
2021/09/05 10:05:13;;;;;;;7.47;3.92;;;;;;;30.79;37.33;100105.34;5042323;28;20465;-63
2021/09/05 10:07:42;;;;;;;5.25;3.28;;;;;;;31.03;36.69;100106.28;5039052;28;20041;-64
2021/09/05 10:10:13;;;;;;;6.90;3.85;;;;;;;31.14;35.48;100112.72;5044161;28;20056;-63
2021/09/05 10:12:42;;;;;;;5.30;3.38;;;;;;;31.27;35.26;100104.31;5046616;28;20462;-63
2021/09/05 10:15:09;;;;;;;6.32;3.78;;;;;;;31.35;35.28;100100.94;5032125;28;20128;-63
2021/09/05 10:17:38;;;;;;;7.32;3.95;;;;;;;31.67;35.15;100114.06;5033098;28;20045;-63
2021/09/05 10:20:06;;;;;;;5.40;3.50;;;;;;;32.01;34.73;100105.28;5032373;28;20125;-63
2021/09/05 10:22:33;;;;;;;5.37;4.23;;;;;;;32.29;34.40;100111.81;5031511;28;20116;-63
2021/09/05 10:25:03;;;;;;;7.25;4.13;;;;;;;32.25;33.38;100100.31;5039652;28;20516;-63
2021/09/05 10:27:35;;;;;;;4.88;3.60;;;;;;;32.47;33.65;100108.63;5036813;28;20049;-63
2021/09/05 10:30:08;;;;;;;7.43;4.50;;;;;;;32.89;33.86;100115.66;5032252;28;20081;-63
2021/09/05 10:32:50;;;;;;;6.22;4.15;;;;;;;32.93;33.08;100115.56;5032123;28;20081;-63
2021/09/05 10:35:47;;;;;;;9.77;4.35;;;;;;;32.87;33.40;100115.28;5038351;28;20133;-63
2021/09/05 10:38:20;;;;;;;9.23;3.95;;;;;;;33.29;33.10;100111.94;5030551;28;20049;-63
2021/09/05 10:40:58;;;;;;;8.52;3.55;;;;;;;33.84;32.79;100108.16;5032309;28;20084;-63
2021/09/05 10:43:47;;;;;;;7.47;3.70;;;;;;;33.86;32.36;100116.44;5039149;28;20455;-63
2021/09/05 10:46:33;;;;;;;6.88;3.80;;;;;;;33.61;32.48;100108.31;5031988;28;20076;-64
2021/09/05 10:49:04;;;;;;;6.13;3.72;;;;;;;33.87;32.26;100113.06;5046063;28;20133;-63
2021/09/05 10:51:43;;;;;;;5.82;3.80;;;;;;;34.17;32.14;100108.22;5055753;28;20045;-63
2021/09/05 10:54:12;;;;;;;5.45;3.45;;;;;;;34.40;31.24;100107.19;5041766;28;20049;-64
2021/09/05 10:56:42;;;;;;;6.68;3.83;;;;;;;34.77;31.28;100105.78;5038914;28;20051;-62
2021/09/05 10:59:17;;;;;;;9.02;3.78;;;;;;;35.17;30.69;100099.63;5035882;28;20124;-63
2021/09/05 11:01:46;;;;;;;6.40;3.55;;;;;;;35.99;29.55;100087.50;5035404;28;20049;-64
2021/09/05 11:04:16;;;;;;;5.32;4.10;;;;;;;37.03;28.56;100107.94;5045144;28;20041;-63
2021/09/05 11:07:04;;;;;;;4.35;3.17;;;;;;;37.89;28.09;100093.69;5055169;28;20430;-62
2021/09/05 11:09:31;;;;;;;9.05;4.18;;;;;;;38.23;27.82;100102.72;5035495;28;20056;-64
2021/09/05 11:12:18;;;;;;;5.63;3.70;;;;;;;38.39;26.88;100088.63;5036114;28;20042;-63
2021/09/05 11:14:48;;;;;;;6.47;3.88;;;;;;;38.26;27.29;100099.63;5043787;28;20123;-64
2021/09/05 11:17:17;;;;;;;5.93;3.63;;;;;;;38.08;26.94;100093.75;5055030;28;20051;-62
2021/09/05 11:19:48;;;;;;;7.18;4.15;;;;;;;37.79;26.83;100085.38;5050781;28;20132;-62
2021/09/05 11:22:18;;;;;;;7.80;4.43;;;;;;;37.51;26.27;100055.31;5036401;28;20048;-62
2021/09/05 11:24:46;;;;;;;6.10;4.05;;;;;;;37.59;26.46;100079.97;5035012;28;20088;-63
2021/09/05 11:27:15;;;;;;;6.05;3.60;;;;;;;37.77;26.91;100071.28;5035215;28;20140;-63